createdAt,value
2017-10-25T00:00:08.522Z,3.30
2017-10-25T00:02:34.944Z,5.33
2017-10-25T00:05:01.356Z,3.77
2017-10-25T00:07:27.756Z,4.03
2017-10-25T00:09:54.244Z,3.20
2017-10-25T00:12:20.639Z,3.10
2017-10-25T00:14:47.015Z,2.40
2017-10-25T00:17:13.428Z,2.70
2017-10-25T00:19:40.556Z,2.47
2017-10-25T00:22:06.963Z,2.50
2017-10-25T00:24:33.360Z,3.70
2017-10-25T00:26:59.766Z,2.70
2017-10-25T00:29:26.162Z,3.53
2017-10-25T00:31:52.571Z,3.63
2017-10-25T00:34:18.958Z,3.70
2017-10-25T00:36:45.391Z,3.83
2017-10-25T00:39:11.780Z,2.97
2017-10-25T00:41:38.247Z,4.20
2017-10-25T00:44:04.651Z,2.93
2017-10-25T00:46:31.088Z,2.60
2017-10-25T00:48:57.503Z,2.97
2017-10-25T00:51:23.918Z,3.30
2017-10-25T00:53:50.392Z,3.80
2017-10-25T00:56:16.892Z,3.47
2017-10-25T00:58:43.324Z,3.20
2017-10-25T01:01:09.715Z,3.60
2017-10-25T01:03:36.139Z,3.23
2017-10-25T01:06:02.540Z,6.63
2017-10-25T01:08:28.996Z,2.60
2017-10-25T01:10:55.391Z,3.43
2017-10-25T01:13:21.788Z,2.67
2017-10-25T01:15:52.644Z,6.70
2017-10-25T01:18:26.235Z,3.40
2017-10-25T01:20:53.421Z,3.10
2017-10-25T01:23:19.867Z,3.60
2017-10-25T01:25:47.155Z,6.83
2017-10-25T01:28:13.592Z,3.97
2017-10-25T01:30:40.036Z,3.00
2017-10-25T01:33:07.235Z,6.00
2017-10-25T01:35:33.672Z,7.00
2017-10-25T01:38:00.143Z,3.80
2017-10-25T01:40:26.585Z,3.00
2017-10-25T01:42:53.774Z,3.27
2017-10-25T01:45:20.275Z,3.30
2017-10-25T01:47:47.460Z,2.40
2017-10-25T01:50:13.892Z,2.97
2017-10-25T01:52:40.306Z,2.77
2017-10-25T01:55:06.729Z,3.07
2017-10-25T01:57:33.891Z,3.67
2017-10-25T02:00:00.347Z,2.70
2017-10-25T02:02:26.799Z,2.67
2017-10-25T02:04:53.218Z,3.77
2017-10-25T02:07:19.656Z,3.90
2017-10-25T02:09:46.852Z,2.83
2017-10-25T02:12:14.178Z,2.67
2017-10-25T02:14:40.602Z,3.40
2017-10-25T02:17:07.383Z,2.27
2017-10-25T02:19:33.864Z,3.53
2017-10-25T02:22:00.284Z,2.90
2017-10-25T02:24:26.696Z,2.77
2017-10-25T02:26:53.170Z,4.13
2017-10-25T02:29:19.576Z,3.03
2017-10-25T02:31:45.961Z,2.97
2017-10-25T02:34:12.392Z,3.13
2017-10-25T02:36:38.961Z,2.63
2017-10-25T02:39:05.358Z,3.10
2017-10-25T02:41:31.780Z,2.70
2017-10-25T02:43:58.212Z,2.67
2017-10-25T02:46:24.601Z,3.70
2017-10-25T02:48:50.998Z,2.70
2017-10-25T02:51:17.416Z,2.70
2017-10-25T02:53:43.819Z,3.87
2017-10-25T02:56:10.251Z,2.80
2017-10-25T02:58:36.668Z,2.27
2017-10-25T03:01:03.067Z,2.57
2017-10-25T03:03:30.244Z,3.50
2017-10-25T03:05:56.723Z,4.77
2017-10-25T03:08:23.147Z,2.90
2017-10-25T03:10:49.593Z,2.70
2017-10-25T03:13:16.043Z,2.83
2017-10-25T03:15:42.520Z,8.83
2017-10-25T03:18:08.955Z,3.20
2017-10-25T03:20:35.407Z,4.70
2017-10-25T03:23:01.827Z,2.80
2017-10-25T03:25:28.254Z,2.33
2017-10-25T03:27:54.679Z,2.90
2017-10-25T03:30:21.071Z,2.70
2017-10-25T03:32:47.479Z,3.00
2017-10-25T03:35:13.861Z,3.07
2017-10-25T03:37:41.036Z,2.13
2017-10-25T03:40:07.496Z,4.00
2017-10-25T03:42:34.660Z,2.67
2017-10-25T03:45:01.090Z,2.33
2017-10-25T03:47:27.485Z,4.63
2017-10-25T03:49:53.994Z,3.13
2017-10-25T03:52:21.127Z,6.60
2017-10-25T03:54:47.512Z,3.33
2017-10-25T03:57:14.044Z,3.30
2017-10-25T03:59:40.476Z,2.57
2017-10-25T04:02:06.857Z,4.10
2017-10-25T04:04:33.243Z,3.23
2017-10-25T04:06:59.671Z,2.60
2017-10-25T04:09:26.067Z,3.03
2017-10-25T04:11:53.237Z,2.40
2017-10-25T04:14:20.151Z,2.83
2017-10-25T04:16:46.656Z,3.50
2017-10-25T04:19:13.086Z,3.00
2017-10-25T04:21:39.496Z,2.60
2017-10-25T04:24:05.896Z,2.23
2017-10-25T04:26:33.062Z,2.97
2017-10-25T04:28:59.460Z,1.97
2017-10-25T04:31:25.927Z,2.43
2017-10-25T04:33:52.399Z,2.77
2017-10-25T04:36:19.064Z,5.10
2017-10-25T04:38:46.231Z,3.27
2017-10-25T04:41:13.387Z,2.13
2017-10-25T04:43:39.812Z,3.73
2017-10-25T04:46:06.971Z,4.50
2017-10-25T04:48:34.137Z,2.63
2017-10-25T04:51:00.555Z,4.07
2017-10-25T04:53:27.904Z,3.10
2017-10-25T04:55:54.415Z,6.67
2017-10-25T04:58:20.812Z,2.53
2017-10-25T05:00:47.215Z,5.43
2017-10-25T05:03:13.662Z,2.60
2017-10-25T05:05:40.143Z,3.60
2017-10-25T05:08:06.577Z,6.67
2017-10-25T05:10:33.012Z,3.67
2017-10-25T05:12:59.430Z,3.07
2017-10-25T05:15:25.803Z,3.90
2017-10-25T05:17:52.967Z,4.23
2017-10-25T05:20:19.359Z,8.83
2017-10-25T05:22:45.781Z,4.67
2017-10-25T05:25:12.216Z,5.70
2017-10-25T05:27:38.654Z,6.93
2017-10-25T05:30:05.096Z,5.30
2017-10-25T05:32:31.535Z,7.50
2017-10-25T05:34:57.968Z,6.33
2017-10-25T05:37:24.407Z,8.70
2017-10-25T05:39:51.584Z,6.00
2017-10-25T05:42:17.991Z,7.40
2017-10-25T05:44:45.144Z,4.93
2017-10-25T05:47:12.364Z,5.73
2017-10-25T05:49:38.784Z,6.40
2017-10-25T05:52:05.231Z,6.30
2017-10-25T05:54:31.690Z,5.90
2017-10-25T05:56:58.101Z,5.97
2017-10-25T05:59:24.537Z,6.80
2017-10-25T06:01:50.971Z,5.90
2017-10-25T06:04:17.379Z,5.70
2017-10-25T06:06:43.811Z,6.70
2017-10-25T06:09:10.220Z,6.07
2017-10-25T06:11:36.707Z,8.60
2017-10-25T06:14:03.135Z,7.90
2017-10-25T06:16:29.685Z,16.13
2017-10-25T06:18:56.095Z,16.77
2017-10-25T06:21:22.488Z,43.50
2017-10-25T06:23:48.907Z,15.73
2017-10-25T06:26:15.306Z,17.80
2017-10-25T06:28:41.728Z,8.50
2017-10-25T06:31:08.155Z,7.73
2017-10-25T06:33:34.575Z,9.20
2017-10-25T06:36:01.004Z,9.50
2017-10-25T06:38:27.408Z,8.20
2017-10-25T06:40:53.847Z,5.30
2017-10-25T06:43:20.287Z,5.80
2017-10-25T06:45:46.699Z,9.80
2017-10-25T06:48:14.023Z,6.40
2017-10-25T06:50:40.456Z,8.30
2017-10-25T06:53:06.855Z,14.73
2017-10-25T06:55:33.323Z,9.93
2017-10-25T06:57:59.760Z,5.67
2017-10-25T07:00:26.219Z,10.70
2017-10-25T07:02:53.362Z,9.20
2017-10-25T07:05:20.500Z,6.87
2017-10-25T07:07:46.912Z,7.27
2017-10-25T07:10:13.359Z,8.40
2017-10-25T07:12:39.758Z,7.33
2017-10-25T07:15:06.186Z,13.33
2017-10-25T07:17:32.614Z,10.00
2017-10-25T07:19:59.023Z,8.30
2017-10-25T07:22:26.151Z,12.80
2017-10-25T07:24:53.299Z,9.90
2017-10-25T07:27:20.453Z,9.80
2017-10-25T07:29:47.623Z,10.80
2017-10-25T07:32:14.751Z,16.10
2017-10-25T07:34:41.912Z,10.10
2017-10-25T07:37:09.052Z,12.50
2017-10-25T07:39:36.299Z,12.47
2017-10-25T07:42:02.749Z,7.60
2017-10-25T07:44:29.891Z,15.00
2017-10-25T07:46:57.048Z,18.73
2017-10-25T07:49:24.167Z,21.40
2017-10-25T07:51:50.575Z,21.20
2017-10-25T07:54:17.023Z,11.67
2017-10-25T07:56:43.412Z,9.20
2017-10-25T07:59:09.804Z,9.80
2017-10-25T08:01:36.224Z,9.60
2017-10-25T08:07:05.120Z,10.37
2017-10-25T08:13:05.546Z,11.70
2017-10-25T08:15:33.624Z,9.93
2017-10-25T08:18:00.088Z,10.47
2017-10-25T08:20:26.559Z,11.93
2017-10-25T08:22:53.051Z,13.23
2017-10-25T08:25:20.192Z,9.93
2017-10-25T08:27:47.724Z,11.77
2017-10-25T08:30:15.012Z,12.87
2017-10-25T08:46:15.436Z,9.30
2017-10-25T08:48:42.663Z,8.80
2017-10-25T08:51:09.104Z,15.53
2017-10-25T08:53:35.505Z,10.53
2017-10-25T08:56:01.991Z,8.60
2017-10-25T08:58:31.187Z,11.20
2017-10-25T09:00:57.679Z,7.03
2017-10-25T09:03:25.236Z,6.83
2017-10-25T09:05:51.752Z,8.90
2017-10-25T09:08:21.639Z,6.00
2017-10-25T09:10:48.232Z,6.60
2017-10-25T09:13:14.656Z,7.37
2017-10-25T09:15:41.136Z,6.10
2017-10-25T09:18:07.608Z,5.20
2017-10-25T09:20:34.067Z,7.20
2017-10-25T09:23:00.482Z,5.97
2017-10-25T09:25:26.902Z,5.37
2017-10-25T09:27:54.047Z,7.33
2017-10-25T09:30:21.170Z,5.33
2017-10-25T09:32:47.563Z,5.00
2017-10-25T09:35:14.256Z,6.70
2017-10-25T09:37:41.667Z,6.10
2017-10-25T09:40:12.790Z,6.07
2017-10-25T09:42:39.265Z,7.53
2017-10-25T09:45:07.597Z,8.53
2017-10-25T09:47:34.052Z,8.07
2017-10-25T09:50:02.196Z,5.43
2017-10-25T09:52:28.626Z,4.70
2017-10-25T11:14:23.899Z,5.47
2017-10-25T11:16:50.595Z,6.13
2017-10-25T11:19:21.574Z,4.60
2017-10-25T11:21:49.713Z,7.83
2017-10-25T11:24:16.113Z,6.70
2017-10-25T11:29:54.180Z,4.80
2017-10-25T11:32:20.636Z,5.00
2017-10-25T11:37:21.239Z,4.57
2017-10-25T11:39:56.423Z,4.40
2017-10-25T11:42:23.085Z,5.40
2017-10-25T11:44:51.028Z,8.10
2017-10-25T11:47:17.480Z,4.50
2017-10-25T11:53:11.113Z,5.27
2017-10-25T11:55:39.369Z,7.17
2017-10-25T11:58:07.889Z,6.30
2017-10-25T12:00:34.341Z,5.30
2017-10-25T12:03:01.496Z,4.73
2017-10-25T12:05:31.789Z,6.17
2017-10-25T12:07:58.248Z,4.93
2017-10-25T12:10:24.736Z,4.20
2017-10-25T12:15:55.693Z,4.27
2017-10-25T12:18:22.386Z,4.03
2017-10-25T12:20:50.916Z,5.43
2017-10-25T12:23:19.996Z,4.90
2017-10-25T12:25:47.804Z,4.50
2017-10-25T12:28:14.821Z,6.13
2017-10-25T12:30:42.233Z,4.47
2017-10-25T12:33:09.475Z,4.67
2017-10-25T12:40:05.906Z,4.00
2017-10-25T12:42:34.084Z,3.97
2017-10-25T12:45:01.477Z,4.80
2017-10-25T12:47:28.991Z,4.37
2017-10-25T12:49:57.848Z,5.40
2017-10-25T12:52:31.936Z,3.53
2017-10-25T12:54:58.380Z,3.83
2017-10-25T12:57:25.650Z,2.80
2017-10-25T12:59:52.339Z,5.57
2017-10-25T13:04:52.148Z,4.93
2017-10-25T13:07:19.332Z,4.27
2017-10-25T13:09:46.855Z,4.60
2017-10-25T13:12:52.426Z,4.77
2017-10-25T13:15:31.325Z,4.53
2017-10-25T13:18:10.429Z,7.17
2017-10-25T13:23:39.654Z,4.40
2017-10-25T13:26:08.079Z,2.80
2017-10-25T13:28:34.572Z,5.57
2017-10-25T13:31:02.099Z,4.40
2017-10-25T13:33:28.590Z,3.13
2017-10-25T13:35:57.105Z,3.90
2017-10-25T13:38:24.727Z,2.97
2017-10-25T13:40:51.982Z,4.33
2017-10-25T13:46:11.029Z,4.73
2017-10-25T13:48:39.023Z,2.60
2017-10-25T13:51:06.768Z,3.83
2017-10-25T13:53:35.435Z,6.80
2017-10-25T13:56:03.363Z,4.67
2017-10-25T13:58:33.276Z,8.63
2017-10-25T14:01:02.030Z,3.87
2017-10-25T14:03:28.708Z,2.23
2017-10-25T14:06:08.926Z,4.87
2017-10-25T14:08:36.708Z,4.67
2017-10-25T14:11:03.475Z,4.00
2017-10-25T14:13:30.036Z,4.00
2017-10-25T14:15:57.339Z,4.00
2017-10-25T14:18:24.543Z,6.57
2017-10-25T14:20:51.984Z,3.77
2017-10-25T14:23:18.552Z,3.03
2017-10-25T14:25:48.172Z,3.93
2017-10-25T14:28:27.494Z,7.90
2017-10-25T14:32:51.942Z,4.67
2017-10-25T14:35:18.737Z,4.90
2017-10-25T14:37:47.614Z,3.63
2017-10-25T14:40:14.640Z,4.47
2017-10-25T14:42:41.810Z,7.63
2017-10-25T14:45:08.686Z,4.03
2017-10-25T14:47:35.112Z,3.77
2017-10-25T14:50:12.772Z,4.50
2017-10-25T14:52:51.153Z,4.40
2017-10-25T14:55:22.114Z,4.90
2017-10-25T14:57:51.484Z,4.73
2017-10-25T15:00:18.681Z,7.23
2017-10-25T15:02:45.151Z,5.80
2017-10-25T15:05:13.497Z,7.40
2017-10-25T15:07:40.707Z,5.53
2017-10-25T15:10:07.180Z,4.70
2017-10-25T15:12:33.624Z,6.00
2017-10-25T15:15:00.071Z,6.10
2017-10-25T15:17:28.539Z,5.20
2017-10-25T15:19:56.023Z,5.87
2017-10-25T15:22:25.444Z,5.30
2017-10-25T15:24:53.406Z,7.73
2017-10-25T15:27:21.652Z,3.90
2017-10-25T15:29:50.241Z,3.73
2017-10-25T15:32:19.463Z,3.73
2017-10-25T15:34:45.972Z,3.53
2017-10-25T15:37:19.193Z,5.40
2017-10-25T15:39:47.541Z,5.80
2017-10-25T15:42:14.637Z,10.77
2017-10-25T15:44:42.080Z,7.83
2017-10-25T15:47:09.960Z,3.50
2017-10-25T15:49:36.423Z,4.30
2017-10-25T15:52:06.064Z,3.97
2017-10-25T15:54:32.618Z,8.60
2017-10-25T15:57:05.052Z,11.30
2017-10-25T15:59:33.697Z,7.77
2017-10-25T16:02:04.351Z,5.43
2017-10-25T16:04:33.068Z,5.70
2017-10-25T16:07:00.359Z,6.53
2017-10-25T16:09:26.988Z,9.43
2017-10-25T16:11:54.507Z,13.70
2017-10-25T16:14:22.728Z,19.50
2017-10-25T16:16:49.304Z,15.23
2017-10-25T16:19:21.673Z,32.17
2017-10-25T16:21:48.908Z,19.50
2017-10-25T16:24:15.533Z,13.60
2017-10-25T16:40:48.367Z,13.63
2017-10-25T16:43:15.672Z,18.97
2017-10-25T16:45:45.082Z,14.60
2017-10-25T16:48:13.025Z,10.77
2017-10-25T17:04:18.708Z,10.67
2017-10-25T17:09:19.863Z,8.50
2017-10-25T17:11:47.932Z,8.60
2017-10-25T17:14:14.342Z,8.83
2017-10-25T17:16:41.569Z,10.57
2017-10-25T17:19:11.196Z,10.30
2017-10-25T17:21:38.691Z,10.20
2017-10-25T17:26:38.819Z,8.47
2017-10-25T17:29:05.396Z,7.57
2017-10-25T17:31:31.888Z,7.77
2017-10-25T17:33:59.229Z,7.20
2017-10-25T17:36:25.623Z,8.47
2017-10-25T17:38:52.032Z,8.67
2017-10-25T17:41:18.644Z,9.90
2017-10-25T17:43:45.107Z,9.93
2017-10-25T17:46:15.483Z,9.13
2017-10-25T17:48:42.017Z,9.10
2017-10-25T17:51:10.501Z,8.30
2017-10-25T17:53:38.917Z,8.20
2017-10-25T17:56:05.394Z,9.73
2017-10-25T17:58:33.403Z,9.70
2017-10-25T18:00:59.836Z,9.90
2017-10-25T18:06:01.370Z,10.57
2017-10-25T18:08:27.788Z,10.70
2017-10-25T18:10:55.194Z,9.97
2017-10-25T18:13:23.160Z,9.17
2017-10-25T18:15:51.164Z,8.87
2017-10-25T18:18:22.848Z,10.30
2017-10-25T18:20:49.419Z,8.30
2017-10-25T18:23:17.631Z,8.93
2017-10-25T18:25:44.807Z,8.77
2017-10-25T18:28:11.316Z,9.37
2017-10-25T19:53:09.646Z,11.93
2017-10-25T19:55:36.191Z,13.60
2017-10-25T19:58:03.001Z,11.63
2017-10-25T20:00:30.428Z,11.97
2017-10-25T20:02:56.900Z,12.83
2017-10-25T20:05:23.292Z,11.60
2017-10-25T20:07:49.920Z,12.23
2017-10-25T20:10:16.482Z,12.93
2017-10-25T20:12:42.932Z,12.17
2017-10-25T20:15:09.415Z,14.50
2017-10-25T20:17:36.047Z,11.87
2017-10-25T20:20:02.685Z,16.57
2017-10-25T20:22:29.940Z,13.83
2017-10-25T20:24:56.452Z,16.20
2017-10-25T20:27:23.716Z,17.50
2017-10-25T20:29:51.021Z,19.60
2017-10-25T20:32:17.504Z,15.87
2017-10-25T20:34:44.229Z,16.37
2017-10-25T20:37:11.632Z,17.43
2017-10-25T20:39:38.042Z,18.00
2017-10-25T20:42:05.217Z,14.50
2017-10-25T20:44:32.020Z,18.13
2017-10-25T20:46:59.239Z,14.17
2017-10-25T20:49:25.700Z,14.23
2017-10-25T20:51:52.075Z,13.33
2017-10-25T20:54:18.548Z,19.10
2017-10-25T20:56:44.983Z,15.77
2017-10-25T20:59:11.391Z,13.70
2017-10-25T21:01:38.136Z,18.20
2017-10-25T21:04:04.625Z,19.37
2017-10-25T21:06:31.584Z,18.60
2017-10-25T21:08:57.970Z,19.70
2017-10-25T21:11:24.399Z,17.60
2017-10-25T21:13:50.798Z,16.07
2017-10-25T21:16:17.244Z,16.30
2017-10-25T21:18:43.655Z,14.70
2017-10-25T21:21:10.928Z,17.30
2017-10-25T21:23:37.572Z,17.10
2017-10-25T21:26:04.012Z,14.17
2017-10-25T21:28:30.436Z,13.03
2017-10-25T21:30:56.823Z,14.63
2017-10-25T21:33:23.982Z,13.23
2017-10-25T21:35:51.110Z,16.13
2017-10-25T21:38:17.550Z,14.53
2017-10-25T21:40:44.924Z,16.43
2017-10-25T21:43:11.392Z,14.30
2017-10-25T21:45:37.843Z,12.53
2017-10-25T21:48:05.040Z,11.93
2017-10-25T21:50:32.189Z,12.23
2017-10-25T21:52:59.393Z,13.53
2017-10-25T21:55:25.815Z,13.07
2017-10-25T21:57:52.975Z,11.70
2017-10-25T22:00:19.396Z,10.50
2017-10-25T22:02:45.821Z,10.17
2017-10-25T22:05:12.575Z,12.27
2017-10-25T22:07:39.008Z,12.33
2017-10-25T22:10:05.415Z,12.40
2017-10-25T22:12:31.779Z,10.47
2017-10-25T22:14:58.184Z,9.97
2017-10-25T22:17:24.840Z,8.57
2017-10-25T22:19:51.299Z,11.17
2017-10-25T22:22:17.703Z,10.20
2017-10-25T22:24:44.112Z,9.73
2017-10-25T22:27:11.251Z,9.10
2017-10-25T22:29:38.370Z,10.80
2017-10-25T22:32:04.780Z,12.97
2017-10-25T22:34:31.160Z,8.10
2017-10-25T22:36:58.325Z,7.53
2017-10-25T22:39:25.464Z,9.93
2017-10-25T22:41:52.603Z,7.87
2017-10-25T22:44:19.755Z,11.10
2017-10-25T22:46:46.138Z,10.00
2017-10-25T22:49:13.284Z,12.80
2017-10-25T22:51:39.669Z,10.67
2017-10-25T22:54:06.839Z,10.00
2017-10-25T22:56:33.360Z,11.17
2017-10-25T22:59:00.484Z,13.60
2017-10-25T23:01:26.867Z,14.70
2017-10-25T23:03:53.308Z,14.23
2017-10-25T23:06:19.700Z,14.90
2017-10-25T23:08:46.064Z,15.70
2017-10-25T23:11:12.461Z,17.13
2017-10-25T23:13:38.836Z,16.23
2017-10-25T23:16:05.248Z,16.13
2017-10-25T23:18:31.636Z,17.10
2017-10-25T23:20:58.160Z,16.83
2017-10-25T23:23:24.535Z,22.90
2017-10-25T23:25:51.664Z,15.03
2017-10-25T23:28:18.067Z,16.00
2017-10-25T23:30:44.487Z,18.97
2017-10-25T23:33:10.883Z,15.57
2017-10-25T23:35:38.135Z,21.20
2017-10-25T23:38:04.571Z,19.97
2017-10-25T23:40:31.724Z,17.63
2017-10-25T23:42:58.840Z,15.57
2017-10-25T23:45:25.251Z,14.40
2017-10-25T23:47:52.452Z,14.53
2017-10-25T23:50:19.591Z,18.47
2017-10-25T23:52:45.959Z,17.90
2017-10-25T23:55:12.371Z,19.90
2017-10-25T23:57:39.488Z,14.20
